createdAt,value
2018-01-30T00:02:00.014Z,2.30
2018-01-30T00:04:28.308Z,2.20
2018-01-30T00:06:56.579Z,1.77
2018-01-30T00:09:24.901Z,1.60
2018-01-30T00:11:53.196Z,2.00
2018-01-30T00:14:21.500Z,1.73
2018-01-30T00:16:49.803Z,2.07
2018-01-30T00:19:18.125Z,1.83
2018-01-30T00:21:46.407Z,2.07
2018-01-30T00:24:14.683Z,1.55
2018-01-30T00:26:42.996Z,1.80
2018-01-30T00:29:11.273Z,1.67
2018-01-30T00:31:39.606Z,1.63
2018-01-30T00:34:08.110Z,2.03
2018-01-30T00:36:37.194Z,2.20
2018-01-30T00:39:05.474Z,1.70
2018-01-30T00:41:33.836Z,1.73
2018-01-30T00:44:02.101Z,1.62
2018-01-30T00:46:30.394Z,1.80
2018-01-30T00:48:58.671Z,1.43
2018-01-30T00:51:26.985Z,2.27
2018-01-30T00:53:55.307Z,1.70
2018-01-30T00:56:23.636Z,2.17
2018-01-30T00:58:51.919Z,2.95
2018-01-30T01:01:20.187Z,2.40
2018-01-30T01:03:48.527Z,2.60
2018-01-30T01:06:16.811Z,2.50
2018-01-30T01:08:45.116Z,2.70
2018-01-30T01:11:13.371Z,1.50
2018-01-30T01:13:41.672Z,1.23
2018-01-30T01:16:09.961Z,1.20
2018-01-30T01:18:38.274Z,1.30
2018-01-30T01:21:06.542Z,2.23
2018-01-30T01:23:34.827Z,1.27
2018-01-30T01:26:03.094Z,1.37
2018-01-30T01:28:31.381Z,1.13
2018-01-30T01:30:59.671Z,1.67
2018-01-30T01:33:27.955Z,1.50
2018-01-30T01:35:56.262Z,1.67
2018-01-30T01:38:24.537Z,1.53
2018-01-30T01:40:52.849Z,3.03
2018-01-30T01:43:21.110Z,1.70
2018-01-30T01:45:49.423Z,1.63
2018-01-30T01:48:17.690Z,1.98
2018-01-30T01:50:45.981Z,1.43
2018-01-30T01:53:14.311Z,1.20
2018-01-30T01:55:42.610Z,1.30
2018-01-30T01:58:10.921Z,1.60
2018-01-30T02:00:40.381Z,1.23
2018-01-30T02:03:08.699Z,1.57
2018-01-30T02:05:36.970Z,1.47
2018-01-30T02:08:05.346Z,1.30
2018-01-30T02:10:33.636Z,1.60
2018-01-30T02:13:01.911Z,1.80
2018-01-30T02:15:30.279Z,1.80
2018-01-30T02:17:58.584Z,2.25
2018-01-30T02:20:26.903Z,2.47
2018-01-30T02:22:55.194Z,2.37
2018-01-30T02:25:23.483Z,3.10
2018-01-30T02:27:51.795Z,3.22
2018-01-30T02:30:20.083Z,3.30
2018-01-30T02:32:48.818Z,4.17
2018-01-30T02:35:17.116Z,4.20
2018-01-30T02:37:45.395Z,6.00
2018-01-30T02:40:13.688Z,4.73
2018-01-30T02:42:42.032Z,4.30
2018-01-30T02:45:11.446Z,5.25
2018-01-30T02:47:39.710Z,4.70
2018-01-30T02:50:07.987Z,5.10
2018-01-30T02:52:36.301Z,5.30
2018-01-30T02:55:05.171Z,5.47
2018-01-30T02:57:33.501Z,4.87
2018-01-30T03:00:01.776Z,5.00
2018-01-30T03:02:30.091Z,4.97
2018-01-30T03:04:58.372Z,4.95
2018-01-30T03:07:26.659Z,5.50
2018-01-30T03:09:54.935Z,6.67
2018-01-30T03:12:23.287Z,5.27
2018-01-30T03:14:51.574Z,4.72
2018-01-30T03:17:19.883Z,7.93
2018-01-30T03:19:48.152Z,5.80
2018-01-30T03:22:16.475Z,5.40
2018-01-30T03:24:44.773Z,6.30
2018-01-30T03:27:13.055Z,5.62
2018-01-30T03:29:41.375Z,4.77
2018-01-30T03:32:09.634Z,4.15
2018-01-30T03:34:37.948Z,4.70
2018-01-30T03:37:06.240Z,4.07
2018-01-30T03:39:34.548Z,5.03
2018-01-30T03:42:02.818Z,4.75
2018-01-30T03:44:31.132Z,4.50
2018-01-30T03:46:59.399Z,4.40
2018-01-30T03:49:27.710Z,4.77
2018-01-30T03:51:56.018Z,4.60
2018-01-30T03:54:24.305Z,5.97
2018-01-30T03:56:52.603Z,8.27
2018-01-30T03:59:20.896Z,5.20
2018-01-30T04:01:49.193Z,9.63
2018-01-30T04:04:17.470Z,5.77
2018-01-30T04:06:45.783Z,5.00
2018-01-30T04:09:14.061Z,5.27
2018-01-30T04:11:42.366Z,6.30
2018-01-30T04:14:10.764Z,7.12
2018-01-30T04:16:39.811Z,5.20
2018-01-30T04:19:08.097Z,5.40
2018-01-30T04:21:36.458Z,5.83
2018-01-30T04:24:05.055Z,5.97
2018-01-30T04:26:33.329Z,5.60
2018-01-30T04:29:01.638Z,6.53
2018-01-30T04:31:29.900Z,6.13
2018-01-30T04:33:58.223Z,6.07
2018-01-30T04:36:26.650Z,6.30
2018-01-30T04:38:54.935Z,5.90
2018-01-30T04:41:23.212Z,8.10
2018-01-30T04:43:51.513Z,7.67
2018-01-30T04:46:19.763Z,6.87
2018-01-30T04:48:49.458Z,6.27
2018-01-30T04:51:17.727Z,6.80
2018-01-30T04:53:46.026Z,7.53
2018-01-30T04:56:14.325Z,13.13
2018-01-30T04:58:43.579Z,8.00
2018-01-30T05:01:12.670Z,42.23
2018-01-30T05:03:40.957Z,56.83
2018-01-30T05:06:09.635Z,34.78
2018-01-30T05:08:37.910Z,47.77
2018-01-30T05:11:06.235Z,27.77
2018-01-30T05:13:34.500Z,20.73
2018-01-30T05:16:02.847Z,53.20
2018-01-30T05:18:31.730Z,17.60
2018-01-30T05:21:00.036Z,12.50
2018-01-30T05:23:28.303Z,12.50
2018-01-30T05:25:56.671Z,27.60
2018-01-30T05:28:24.952Z,27.73
2018-01-30T05:30:53.217Z,12.35
2018-01-30T05:33:21.894Z,14.15
2018-01-30T05:35:50.195Z,22.07
2018-01-30T05:38:18.520Z,13.60
2018-01-30T05:40:46.748Z,6.03
2018-01-30T05:43:15.075Z,9.30
2018-01-30T05:45:43.404Z,7.00
2018-01-30T05:48:11.757Z,4.80
2018-01-30T05:50:40.033Z,3.10
2018-01-30T05:53:09.229Z,4.62
2018-01-30T05:55:37.551Z,3.20
2018-01-30T05:58:07.035Z,3.10
2018-01-30T06:00:35.337Z,8.05
2018-01-30T06:03:03.687Z,12.70
2018-01-30T06:05:32.054Z,10.33
2018-01-30T06:08:00.343Z,10.87
2018-01-30T06:13:36.418Z,10.27
2018-01-30T06:16:06.413Z,5.87
2018-01-30T06:18:34.714Z,7.57
2018-01-30T06:21:03.044Z,7.97
2018-01-30T06:23:31.343Z,3.77
2018-01-30T06:25:59.643Z,4.80
2018-01-30T06:28:27.899Z,9.57
2018-01-30T06:30:56.191Z,10.10
2018-01-30T06:33:24.513Z,10.10
2018-01-30T06:35:52.824Z,12.47
2018-01-30T06:38:21.114Z,6.70
2018-01-30T06:40:49.406Z,3.73
2018-01-30T06:43:17.672Z,3.62
2018-01-30T06:45:46.004Z,3.27
2018-01-30T06:48:14.259Z,8.40
2018-01-30T06:50:42.603Z,3.27
2018-01-30T06:53:10.875Z,2.95
2018-01-30T06:55:39.244Z,3.80
2018-01-30T06:58:07.530Z,4.47
2018-01-30T07:00:35.832Z,3.83
2018-01-30T07:03:04.152Z,3.30
2018-01-30T07:05:32.448Z,3.87
2018-01-30T07:08:00.750Z,4.33
2018-01-30T07:10:29.075Z,3.20
2018-01-30T07:12:57.379Z,3.93
2018-01-30T07:15:25.659Z,4.15
2018-01-30T07:17:54.621Z,4.67
2018-01-30T07:20:22.900Z,3.75
2018-01-30T07:22:51.270Z,3.25
2018-01-30T07:25:19.577Z,4.00
2018-01-30T07:27:47.854Z,3.42
2018-01-30T07:30:16.152Z,3.10
2018-01-30T07:32:44.479Z,3.67
2018-01-30T07:35:12.807Z,2.90
2018-01-30T07:37:41.070Z,3.83
2018-01-30T07:40:09.376Z,2.92
2018-01-30T07:42:37.672Z,3.00
2018-01-30T07:45:06.775Z,2.93
2018-01-30T07:47:35.182Z,3.23
2018-01-30T07:50:03.507Z,2.97
2018-01-30T07:52:31.778Z,5.97
2018-01-30T07:55:00.123Z,4.00
2018-01-30T07:57:28.446Z,5.00
2018-01-30T07:59:56.926Z,4.00
2018-01-30T08:02:25.183Z,4.10
2018-01-30T08:04:53.639Z,5.67
2018-01-30T08:07:21.904Z,4.23
2018-01-30T08:09:50.967Z,6.27
2018-01-30T08:12:19.338Z,4.82
2018-01-30T08:14:47.585Z,8.03
2018-01-30T08:17:15.845Z,4.30
2018-01-30T08:19:44.134Z,6.20
2018-01-30T08:22:12.547Z,4.10
2018-01-30T08:24:41.516Z,12.20
2018-01-30T08:27:09.780Z,8.27
2018-01-30T08:29:38.132Z,5.77
2018-01-30T08:32:06.389Z,10.70
2018-01-30T08:34:34.693Z,11.83
2018-01-30T08:37:02.972Z,4.73
2018-01-30T08:39:31.270Z,6.33
2018-01-30T08:41:59.563Z,10.10
2018-01-30T08:44:28.172Z,9.57
2018-01-30T08:46:56.439Z,4.40
2018-01-30T08:49:24.930Z,5.70
2018-01-30T08:51:53.692Z,7.20
2018-01-30T08:54:21.995Z,9.70
2018-01-30T08:56:50.373Z,7.07
2018-01-30T08:59:18.800Z,22.67
2018-01-30T09:01:47.126Z,11.40
2018-01-30T09:04:15.463Z,9.20
2018-01-30T09:06:43.778Z,24.07
2018-01-30T09:09:12.189Z,17.73
2018-01-30T09:11:40.503Z,6.60
2018-01-30T09:14:08.761Z,14.47
2018-01-30T09:16:37.167Z,15.90
2018-01-30T09:19:05.674Z,10.02
2018-01-30T09:21:34.402Z,12.00
2018-01-30T09:24:02.707Z,8.40
2018-01-30T09:26:31.016Z,7.80
2018-01-30T09:28:59.335Z,14.97
2018-01-30T09:31:27.623Z,8.80
2018-01-30T09:33:55.924Z,11.33
2018-01-30T09:36:24.256Z,17.73
2018-01-30T09:38:52.674Z,15.73
2018-01-30T09:41:20.944Z,12.50
2018-01-30T09:43:49.242Z,8.57
2018-01-30T09:46:17.622Z,5.03
2018-01-30T09:48:45.913Z,7.67
2018-01-30T09:51:14.280Z,10.20
2018-01-30T09:53:42.587Z,5.90
2018-01-30T09:56:11.522Z,7.60
2018-01-30T09:58:41.383Z,6.37
2018-01-30T10:01:10.594Z,9.10
2018-01-30T10:03:38.871Z,7.27
2018-01-30T10:06:07.188Z,8.30
2018-01-30T10:08:35.450Z,11.03
2018-01-30T10:11:03.751Z,8.47
2018-01-30T10:13:32.071Z,9.20
2018-01-30T10:16:00.405Z,7.72
2018-01-30T10:18:28.682Z,7.03
2018-01-30T10:20:56.978Z,11.17
2018-01-30T10:23:25.289Z,12.87
2018-01-30T10:25:53.582Z,13.10
2018-01-30T10:28:22.006Z,10.20
2018-01-30T10:30:50.828Z,8.13
2018-01-30T10:33:19.105Z,9.90
2018-01-30T10:35:47.426Z,9.73
2018-01-30T10:38:15.706Z,9.93
2018-01-30T10:40:44.036Z,14.23
2018-01-30T10:43:13.132Z,10.85
2018-01-30T10:45:41.457Z,12.70
2018-01-30T10:48:09.803Z,11.83
2018-01-30T10:50:38.030Z,17.73
2018-01-30T10:53:06.342Z,17.12
2018-01-30T10:55:35.964Z,10.07
2018-01-30T10:58:04.251Z,12.67
2018-01-30T11:00:32.729Z,6.40
2018-01-30T11:03:01.068Z,7.82
2018-01-30T11:05:29.386Z,9.30
2018-01-30T11:07:58.202Z,8.17
2018-01-30T11:10:26.576Z,8.93
2018-01-30T11:12:54.888Z,9.67
2018-01-30T11:15:23.280Z,9.10
2018-01-30T11:17:51.864Z,9.63
2018-01-30T11:20:20.289Z,7.63
2018-01-30T11:22:48.672Z,14.77
2018-01-30T11:25:16.974Z,10.63
2018-01-30T11:27:45.352Z,9.03
2018-01-30T11:30:13.696Z,7.13
2018-01-30T11:32:41.961Z,6.63
2018-01-30T11:35:10.348Z,12.88
2018-01-30T11:37:38.835Z,8.07
2018-01-30T11:40:08.086Z,8.20
2018-01-30T11:42:36.372Z,4.60
2018-01-30T11:45:05.354Z,4.13
2018-01-30T11:47:33.630Z,5.17
2018-01-30T11:50:01.896Z,11.53
2018-01-30T11:52:31.166Z,3.80
2018-01-30T11:54:59.462Z,3.80
2018-01-30T11:57:27.764Z,4.30
2018-01-30T11:59:56.036Z,4.80
2018-01-30T12:02:24.406Z,3.90
2018-01-30T12:04:53.341Z,3.60
2018-01-30T12:07:23.946Z,5.97
2018-01-30T12:09:52.258Z,5.00
2018-01-30T12:12:20.519Z,5.07
2018-01-30T12:14:48.841Z,6.10
2018-01-30T12:17:17.118Z,7.10
2018-01-30T12:19:45.434Z,5.80
2018-01-30T12:22:13.736Z,5.55
2018-01-30T12:24:42.095Z,7.90
2018-01-30T12:27:10.460Z,6.40
2018-01-30T12:29:38.855Z,5.50
2018-01-30T12:32:07.214Z,11.50
2018-01-30T12:34:35.610Z,6.50
2018-01-30T12:37:04.913Z,9.20
2018-01-30T12:39:33.902Z,5.10
2018-01-30T12:42:02.184Z,5.30
2018-01-30T12:44:30.536Z,4.97
2018-01-30T12:46:58.850Z,5.55
2018-01-30T12:49:27.147Z,8.53
2018-01-30T12:51:55.438Z,6.30
2018-01-30T12:54:23.748Z,13.60
2018-01-30T12:56:52.083Z,17.93
2018-01-30T12:59:20.453Z,5.62
2018-01-30T13:01:49.218Z,6.10
2018-01-30T13:04:17.525Z,12.53
2018-01-30T13:06:45.849Z,14.30
2018-01-30T13:09:14.266Z,7.95
2018-01-30T13:11:42.570Z,7.20
2018-01-30T13:14:10.860Z,7.83
2018-01-30T13:16:39.164Z,5.80
2018-01-30T13:19:07.438Z,13.70
2018-01-30T13:21:35.808Z,8.40
2018-01-30T13:24:05.152Z,9.26
2018-01-30T13:26:33.394Z,11.90
2018-01-30T13:29:01.723Z,7.97
2018-01-30T13:31:29.999Z,7.77
2018-01-30T13:33:58.323Z,7.43
2018-01-30T13:36:26.602Z,8.50
2018-01-30T13:38:54.881Z,8.17
2018-01-30T13:41:23.146Z,7.83
2018-01-30T13:43:52.228Z,5.40
2018-01-30T13:46:20.502Z,8.40
2018-01-30T13:48:48.809Z,8.37
2018-01-30T13:51:17.137Z,10.30
2018-01-30T13:53:45.412Z,7.87
2018-01-30T13:56:13.739Z,8.50
2018-01-30T13:58:42.045Z,5.93
2018-01-30T14:01:10.412Z,6.93
2018-01-30T14:03:38.670Z,4.90
2018-01-30T14:06:07.848Z,4.37
2018-01-30T14:08:36.128Z,5.33
2018-01-30T14:11:05.202Z,4.20
2018-01-30T14:13:33.639Z,5.27
2018-01-30T14:16:01.861Z,5.13
2018-01-30T14:18:30.189Z,5.50
2018-01-30T14:20:58.643Z,6.43
2018-01-30T14:23:27.271Z,6.87
2018-01-30T14:25:55.585Z,5.90
2018-01-30T14:28:23.942Z,7.17
2018-01-30T14:30:52.359Z,5.90
2018-01-30T14:33:20.638Z,8.50
2018-01-30T14:35:48.890Z,4.90
2018-01-30T14:38:17.207Z,4.70
2018-01-30T14:40:45.622Z,10.30
2018-01-30T14:43:13.878Z,11.40
2018-01-30T14:45:42.216Z,9.80
2018-01-30T14:48:10.515Z,5.80
2018-01-30T14:50:38.847Z,7.53
2018-01-30T14:53:07.129Z,4.63
2018-01-30T14:55:35.442Z,6.67
2018-01-30T14:58:04.133Z,6.87
2018-01-30T15:00:32.442Z,5.00
2018-01-30T15:03:00.712Z,4.62
2018-01-30T15:05:29.165Z,5.40
2018-01-30T15:07:58.261Z,5.53
2018-01-30T15:10:26.578Z,5.47
2018-01-30T15:12:54.874Z,9.47
2018-01-30T15:15:23.184Z,6.37
2018-01-30T15:17:51.613Z,4.80
2018-01-30T15:20:20.316Z,8.70
2018-01-30T15:22:48.722Z,3.35
2018-01-30T15:25:17.008Z,4.00
2018-01-30T15:27:45.313Z,5.80
2018-01-30T15:30:13.603Z,6.28
2018-01-30T15:32:41.929Z,6.33
2018-01-30T15:35:10.202Z,5.83
2018-01-30T15:37:38.534Z,7.77
2018-01-30T15:40:06.931Z,5.20
2018-01-30T15:42:35.962Z,5.70
2018-01-30T15:45:04.227Z,4.40
2018-01-30T15:47:32.580Z,9.57
2018-01-30T15:50:00.891Z,5.30
2018-01-30T15:52:29.206Z,6.13
2018-01-30T15:54:57.756Z,6.55
2018-01-30T15:57:26.419Z,6.33
2018-01-30T15:59:54.833Z,10.80
2018-01-30T16:02:23.107Z,5.97
2018-01-30T16:04:51.382Z,10.30
2018-01-30T16:07:19.712Z,6.28
2018-01-30T16:09:48.099Z,6.73
2018-01-30T16:12:16.497Z,5.50
2018-01-30T16:14:44.783Z,4.33
2018-01-30T16:17:13.048Z,4.65
2018-01-30T16:19:41.350Z,3.70
2018-01-30T16:22:09.673Z,4.17
2018-01-30T16:24:38.539Z,5.03
2018-01-30T16:27:07.067Z,5.70
2018-01-30T16:29:36.368Z,4.30
2018-01-30T16:32:04.746Z,6.27
2018-01-30T16:34:33.002Z,4.33
2018-01-30T16:37:01.312Z,3.58
2018-01-30T16:39:29.585Z,5.60
2018-01-30T16:41:57.942Z,3.90
2018-01-30T16:44:26.892Z,4.40
2018-01-30T16:46:55.687Z,7.12
2018-01-30T16:49:24.022Z,6.30
2018-01-30T16:51:52.401Z,7.33
2018-01-30T16:54:20.738Z,5.20
2018-01-30T16:56:49.048Z,5.83
2018-01-30T16:59:17.342Z,5.23
2018-01-30T17:01:45.607Z,7.67
2018-01-30T17:04:14.081Z,6.63
2018-01-30T17:06:42.442Z,9.03
2018-01-30T17:09:10.774Z,5.70
2018-01-30T17:11:39.166Z,6.03
2018-01-30T17:14:07.451Z,6.73
2018-01-30T17:16:35.776Z,5.27
2018-01-30T17:19:04.047Z,7.20
2018-01-30T17:21:32.403Z,6.87
2018-01-30T17:24:00.776Z,8.00
2018-01-30T17:26:29.795Z,9.67
2018-01-30T17:28:58.083Z,7.97
2018-01-30T17:31:26.401Z,13.83
2018-01-30T17:33:54.702Z,11.57
2018-01-30T17:36:23.092Z,5.43
2018-01-30T17:38:51.485Z,6.93
2018-01-30T17:41:19.814Z,5.90
2018-01-30T17:43:48.083Z,6.73
2018-01-30T17:46:16.371Z,9.53
2018-01-30T17:48:44.670Z,5.83
2018-01-30T17:51:12.938Z,8.00
2018-01-30T17:53:41.248Z,12.20
2018-01-30T17:56:09.581Z,6.30
2018-01-30T17:58:37.875Z,6.83
2018-01-30T18:01:06.184Z,6.13
2018-01-30T18:03:34.452Z,7.63
2018-01-30T18:06:02.776Z,5.40
2018-01-30T18:08:31.363Z,6.93
2018-01-30T18:10:59.742Z,5.47
2018-01-30T18:13:28.052Z,5.20
2018-01-30T18:15:56.374Z,5.20
2018-01-30T18:18:24.677Z,5.33
2018-01-30T18:20:52.977Z,12.70
2018-01-30T18:23:21.283Z,6.87
2018-01-30T18:25:49.603Z,10.37
2018-01-30T18:28:17.910Z,5.80
2018-01-30T18:30:46.212Z,8.67
2018-01-30T18:33:14.462Z,6.33
2018-01-30T18:35:42.743Z,5.93
2018-01-30T18:38:11.031Z,17.13
2018-01-30T18:40:39.295Z,6.77
2018-01-30T18:43:07.608Z,7.50
2018-01-30T18:45:36.176Z,9.43
2018-01-30T18:48:04.476Z,8.67
2018-01-30T18:50:32.800Z,8.50
2018-01-30T18:53:01.090Z,5.97
2018-01-30T18:55:29.374Z,9.17
2018-01-30T18:57:57.631Z,6.00
2018-01-30T19:00:25.910Z,7.60
2018-01-30T19:02:54.167Z,6.40
2018-01-30T19:05:22.459Z,8.93
2018-01-30T19:07:50.724Z,7.40
2018-01-30T19:10:19.013Z,7.83
2018-01-30T19:12:47.308Z,6.10
2018-01-30T19:15:15.572Z,6.00
2018-01-30T19:17:43.869Z,6.43
2018-01-30T19:20:12.159Z,6.33
2018-01-30T19:22:40.530Z,7.60
2018-01-30T19:25:08.787Z,8.37
2018-01-30T19:27:37.100Z,6.43
2018-01-30T19:30:05.382Z,7.23
2018-01-30T19:32:33.732Z,10.53
2018-01-30T19:35:01.993Z,8.87
2018-01-30T19:37:30.296Z,8.83
2018-01-30T19:39:58.563Z,9.70
2018-01-30T19:42:26.870Z,7.90
2018-01-30T19:44:55.166Z,8.60
2018-01-30T19:47:23.421Z,10.50
2018-01-30T19:49:52.666Z,10.10
2018-01-30T19:52:20.936Z,11.57
2018-01-30T19:54:49.234Z,11.43
2018-01-30T19:57:17.510Z,13.10
2018-01-30T19:59:45.868Z,11.37
2018-01-30T20:02:14.148Z,19.07
2018-01-30T20:04:42.506Z,10.53
2018-01-30T20:07:10.851Z,9.13
2018-01-30T20:09:39.115Z,11.47
2018-01-30T20:12:07.395Z,10.20
2018-01-30T20:14:35.709Z,20.30
2018-01-30T20:17:03.966Z,11.00
2018-01-30T20:19:32.287Z,8.80
2018-01-30T20:22:00.606Z,10.67
2018-01-30T20:24:28.860Z,8.27
2018-01-30T20:26:57.172Z,10.97
2018-01-30T20:29:25.545Z,8.17
2018-01-30T20:31:53.809Z,9.90
2018-01-30T20:34:22.071Z,8.73
2018-01-30T20:36:50.366Z,10.70
2018-01-30T20:39:18.679Z,9.10
2018-01-30T20:41:46.949Z,8.73
2018-01-30T20:44:15.195Z,8.57
2018-01-30T20:46:43.532Z,6.90
2018-01-30T20:49:11.808Z,7.80
2018-01-30T20:51:40.092Z,8.47
2018-01-30T20:54:08.375Z,7.13
2018-01-30T20:56:36.667Z,9.10
2018-01-30T20:59:04.954Z,8.67
2018-01-30T21:01:33.217Z,10.23
2018-01-30T21:04:01.508Z,8.93
2018-01-30T21:06:29.777Z,8.93
2018-01-30T21:08:58.128Z,8.30
2018-01-30T21:11:26.391Z,9.27
2018-01-30T21:13:54.657Z,8.73
2018-01-30T21:16:23.189Z,11.90
2018-01-30T21:18:51.527Z,8.73
2018-01-30T21:21:19.788Z,10.43
2018-01-30T21:23:48.109Z,10.17
2018-01-30T21:26:16.400Z,9.10
2018-01-30T21:28:44.705Z,10.50
2018-01-30T21:31:12.992Z,10.60
2018-01-30T21:33:41.267Z,10.30
2018-01-30T21:36:09.567Z,9.80
2018-01-30T21:38:37.835Z,9.10
2018-01-30T21:41:06.101Z,9.60
2018-01-30T21:43:34.417Z,10.00
2018-01-30T21:46:02.994Z,9.80
2018-01-30T21:48:31.271Z,10.87
2018-01-30T21:50:59.579Z,13.07
2018-01-30T21:53:27.908Z,13.87
2018-01-30T21:55:56.179Z,9.90
2018-01-30T21:58:24.496Z,8.97
2018-01-30T22:00:52.817Z,9.30
2018-01-30T22:03:21.133Z,9.27
2018-01-30T22:05:49.416Z,10.00
2018-01-30T22:08:17.722Z,7.75
2018-01-30T22:10:47.505Z,8.10
2018-01-30T22:13:15.887Z,10.07
2018-01-30T22:15:44.792Z,8.07
2018-01-30T22:18:13.058Z,8.37
2018-01-30T22:20:41.324Z,7.33
2018-01-30T22:23:09.614Z,8.43
2018-01-30T22:25:37.942Z,10.30
2018-01-30T22:28:06.213Z,7.33
2018-01-30T22:30:34.502Z,7.77
2018-01-30T22:33:02.826Z,7.97
2018-01-30T22:35:31.189Z,7.27
2018-01-30T22:37:59.498Z,7.57
2018-01-30T22:40:27.815Z,8.10
2018-01-30T22:42:56.116Z,9.10
2018-01-30T22:45:24.548Z,10.93
